sensor_id;sensor_type;location;lat;lon;timestamp;temperature;humidity
7572;DHT22;3827;49.928;8.548;2023-05-27T00:01:10;12.70;99.90
7572;DHT22;3827;49.928;8.548;2023-05-27T00:03:38;12.60;99.90
7572;DHT22;3827;49.928;8.548;2023-05-27T00:06:05;12.60;99.90
7572;DHT22;3827;49.928;8.548;2023-05-27T00:08:33;12.60;99.90
7572;DHT22;3827;49.928;8.548;2023-05-27T00:11:00;12.60;99.90
7572;DHT22;3827;49.928;8.548;2023-05-27T00:13:27;12.50;99.90
7572;DHT22;3827;49.928;8.548;2023-05-27T00:15:54;12.50;99.90
7572;DHT22;3827;49.928;8.548;2023-05-27T00:18:21;12.90;99.90
7572;DHT22;3827;49.928;8.548;2023-05-27T00:20:48;12.40;99.90
7572;DHT22;3827;49.928;8.548;2023-05-27T00:23:15;12.30;99.90
7572;DHT22;3827;49.928;8.548;2023-05-27T00:25:43;12.40;99.90
7572;DHT22;3827;49.928;8.548;2023-05-27T00:28:10;12.30;99.90
7572;DHT22;3827;49.928;8.548;2023-05-27T00:30:37;12.30;99.90
7572;DHT22;3827;49.928;8.548;2023-05-27T00:33:04;12.20;99.90
7572;DHT22;3827;49.928;8.548;2023-05-27T00:35:30;12.20;99.90
7572;DHT22;3827;49.928;8.548;2023-05-27T00:37:57;12.10;99.90
7572;DHT22;3827;49.928;8.548;2023-05-27T00:40:26;12.10;99.90
7572;DHT22;3827;49.928;8.548;2023-05-27T00:42:56;12.10;99.90
7572;DHT22;3827;49.928;8.548;2023-05-27T00:45:23;12.00;99.90
7572;DHT22;3827;49.928;8.548;2023-05-27T00:47:50;13.20;99.90
7572;DHT22;3827;49.928;8.548;2023-05-27T00:50:18;12.00;99.90
7572;DHT22;3827;49.928;8.548;2023-05-27T00:52:45;11.90;99.90
7572;DHT22;3827;49.928;8.548;2023-05-27T00:55:12;11.90;99.90
7572;DHT22;3827;49.928;8.548;2023-05-27T00:57:39;11.90;99.90
7572;DHT22;3827;49.928;8.548;2023-05-27T01:00:08;11.90;99.90
7572;DHT22;3827;49.928;8.548;2023-05-27T01:02:37;11.90;99.90
7572;DHT22;3827;49.928;8.548;2023-05-27T01:05:06;11.80;99.90
7572;DHT22;3827;49.928;8.548;2023-05-27T01:07:42;11.80;99.90
7572;DHT22;3827;49.928;8.548;2023-05-27T01:10:19;11.80;99.90
7572;DHT22;3827;49.928;8.548;2023-05-27T01:12:53;11.80;99.90
7572;DHT22;3827;49.928;8.548;2023-05-27T01:15:23;11.70;99.90
7572;DHT22;3827;49.928;8.548;2023-05-27T01:17:53;11.70;99.90
7572;DHT22;3827;49.928;8.548;2023-05-27T01:20:22;11.70;99.90
7572;DHT22;3827;49.928;8.548;2023-05-27T01:22:51;11.60;99.90
7572;DHT22;3827;49.928;8.548;2023-05-27T01:25:19;11.60;99.90
7572;DHT22;3827;49.928;8.548;2023-05-27T01:27:46;11.60;99.90
7572;DHT22;3827;49.928;8.548;2023-05-27T01:30:13;11.50;99.90
7572;DHT22;3827;49.928;8.548;2023-05-27T01:32:44;11.50;99.90
7572;DHT22;3827;49.928;8.548;2023-05-27T01:35:17;11.50;99.90
7572;DHT22;3827;49.928;8.548;2023-05-27T01:37:47;11.40;99.90
7572;DHT22;3827;49.928;8.548;2023-05-27T01:40:16;11.40;99.90
7572;DHT22;3827;49.928;8.548;2023-05-27T01:42:44;11.40;99.90
7572;DHT22;3827;49.928;8.548;2023-05-27T01:45:11;11.30;99.90
7572;DHT22;3827;49.928;8.548;2023-05-27T01:47:38;11.30;99.90
7572;DHT22;3827;49.928;8.548;2023-05-27T01:50:06;11.30;99.90
7572;DHT22;3827;49.928;8.548;2023-05-27T01:52:33;11.20;99.90
7572;DHT22;3827;49.928;8.548;2023-05-27T01:55:00;11.20;99.90
7572;DHT22;3827;49.928;8.548;2023-05-27T01:57:29;11.20;99.90
7572;DHT22;3827;49.928;8.548;2023-05-27T01:59:56;11.20;99.90
7572;DHT22;3827;49.928;8.548;2023-05-27T02:02:23;11.10;99.90
7572;DHT22;3827;49.928;8.548;2023-05-27T02:04:49;11.00;99.90
7572;DHT22;3827;49.928;8.548;2023-05-27T02:07:16;11.00;99.90
7572;DHT22;3827;49.928;8.548;2023-05-27T02:09:44;11.00;99.90
7572;DHT22;3827;49.928;8.548;2023-05-27T02:12:11;10.90;99.90
7572;DHT22;3827;49.928;8.548;2023-05-27T02:14:39;10.90;99.90
7572;DHT22;3827;49.928;8.548;2023-05-27T02:17:06;10.80;99.90
7572;DHT22;3827;49.928;8.548;2023-05-27T02:19:33;10.80;99.90
7572;DHT22;3827;49.928;8.548;2023-05-27T02:22:00;10.80;99.90
7572;DHT22;3827;49.928;8.548;2023-05-27T02:24:27;10.80;99.90
7572;DHT22;3827;49.928;8.548;2023-05-27T02:26:54;10.70;99.90
7572;DHT22;3827;49.928;8.548;2023-05-27T02:29:21;10.70;99.90
7572;DHT22;3827;49.928;8.548;2023-05-27T02:31:49;10.80;99.90
7572;DHT22;3827;49.928;8.548;2023-05-27T02:34:15;10.70;99.90
7572;DHT22;3827;49.928;8.548;2023-05-27T02:36:42;10.60;99.90
7572;DHT22;3827;49.928;8.548;2023-05-27T02:39:09;10.60;99.90
7572;DHT22;3827;49.928;8.548;2023-05-27T02:41:36;10.50;99.90
7572;DHT22;3827;49.928;8.548;2023-05-27T02:44:04;10.50;99.90
7572;DHT22;3827;49.928;8.548;2023-05-27T02:46:31;10.50;99.90
7572;DHT22;3827;49.928;8.548;2023-05-27T02:48:59;10.50;99.90
7572;DHT22;3827;49.928;8.548;2023-05-27T02:51:28;10.40;99.90
7572;DHT22;3827;49.928;8.548;2023-05-27T02:53:55;10.40;99.90
7572;DHT22;3827;49.928;8.548;2023-05-27T02:56:22;10.30;99.90
7572;DHT22;3827;49.928;8.548;2023-05-27T02:58:51;10.30;99.90
7572;DHT22;3827;49.928;8.548;2023-05-27T03:01:18;10.30;99.90
7572;DHT22;3827;49.928;8.548;2023-05-27T03:03:45;10.20;99.90
7572;DHT22;3827;49.928;8.548;2023-05-27T03:06:13;10.20;99.90
7572;DHT22;3827;49.928;8.548;2023-05-27T03:08:40;10.10;99.90
7572;DHT22;3827;49.928;8.548;2023-05-27T03:11:07;10.10;99.90
7572;DHT22;3827;49.928;8.548;2023-05-27T03:13:33;10.00;99.90
7572;DHT22;3827;49.928;8.548;2023-05-27T03:16:00;10.00;99.90
7572;DHT22;3827;49.928;8.548;2023-05-27T03:18:27;10.00;99.90
7572;DHT22;3827;49.928;8.548;2023-05-27T03:20:54;10.00;99.90
7572;DHT22;3827;49.928;8.548;2023-05-27T03:23:22;9.90;99.90
7572;DHT22;3827;49.928;8.548;2023-05-27T03:25:50;9.90;99.90
7572;DHT22;3827;49.928;8.548;2023-05-27T03:28:16;9.90;99.90
7572;DHT22;3827;49.928;8.548;2023-05-27T03:30:43;9.90;99.90
7572;DHT22;3827;49.928;8.548;2023-05-27T03:33:10;9.90;99.90
7572;DHT22;3827;49.928;8.548;2023-05-27T03:35:37;9.90;99.90
7572;DHT22;3827;49.928;8.548;2023-05-27T03:38:04;9.80;99.90
7572;DHT22;3827;49.928;8.548;2023-05-27T03:40:32;9.80;99.90
7572;DHT22;3827;49.928;8.548;2023-05-27T03:42:59;9.80;99.90
7572;DHT22;3827;49.928;8.548;2023-05-27T03:45:26;9.80;99.90
7572;DHT22;3827;49.928;8.548;2023-05-27T03:47:53;9.80;99.90
7572;DHT22;3827;49.928;8.548;2023-05-27T03:50:19;9.80;99.90
7572;DHT22;3827;49.928;8.548;2023-05-27T03:52:46;9.80;99.90
7572;DHT22;3827;49.928;8.548;2023-05-27T03:55:13;9.80;99.90
7572;DHT22;3827;49.928;8.548;2023-05-27T03:57:41;9.80;99.90
7572;DHT22;3827;49.928;8.548;2023-05-27T04:00:09;9.80;99.90
7572;DHT22;3827;49.928;8.548;2023-05-27T04:02:37;9.80;99.90
7572;DHT22;3827;49.928;8.548;2023-05-27T04:05:04;9.80;99.90
7572;DHT22;3827;49.928;8.548;2023-05-27T04:07:31;9.80;99.90
7572;DHT22;3827;49.928;8.548;2023-05-27T04:09:58;9.90;99.90
7572;DHT22;3827;49.928;8.548;2023-05-27T04:12:25;9.90;99.90
7572;DHT22;3827;49.928;8.548;2023-05-27T04:14:53;9.90;99.90
7572;DHT22;3827;49.928;8.548;2023-05-27T04:17:21;9.90;99.90
7572;DHT22;3827;49.928;8.548;2023-05-27T04:19:48;10.30;99.90
7572;DHT22;3827;49.928;8.548;2023-05-27T04:22:17;9.90;99.90
7572;DHT22;3827;49.928;8.548;2023-05-27T04:24:43;10.00;99.90
7572;DHT22;3827;49.928;8.548;2023-05-27T04:27:10;10.10;99.90
7572;DHT22;3827;49.928;8.548;2023-05-27T04:29:38;10.00;99.90
7572;DHT22;3827;49.928;8.548;2023-05-27T04:32:08;10.00;99.90
7572;DHT22;3827;49.928;8.548;2023-05-27T04:34:35;10.00;99.90
7572;DHT22;3827;49.928;8.548;2023-05-27T04:37:02;10.10;99.90
7572;DHT22;3827;49.928;8.548;2023-05-27T04:39:29;10.10;99.90
7572;DHT22;3827;49.928;8.548;2023-05-27T04:41:56;10.20;99.90
7572;DHT22;3827;49.928;8.548;2023-05-27T04:44:23;10.20;99.90
7572;DHT22;3827;49.928;8.548;2023-05-27T04:46:52;10.20;99.90
7572;DHT22;3827;49.928;8.548;2023-05-27T04:49:20;10.30;99.90
7572;DHT22;3827;49.928;8.548;2023-05-27T04:51:47;10.30;99.90
7572;DHT22;3827;49.928;8.548;2023-05-27T04:54:14;10.30;99.90
7572;DHT22;3827;49.928;8.548;2023-05-27T04:56:41;10.60;99.90
7572;DHT22;3827;49.928;8.548;2023-05-27T04:59:08;10.40;99.90
7572;DHT22;3827;49.928;8.548;2023-05-27T05:01:41;9.30;99.90
7572;DHT22;3827;49.928;8.548;2023-05-27T05:04:26;10.50;99.90
7572;DHT22;3827;49.928;8.548;2023-05-27T05:06:52;10.50;99.90
7572;DHT22;3827;49.928;8.548;2023-05-27T05:09:21;10.60;99.90
7572;DHT22;3827;49.928;8.548;2023-05-27T05:11:47;10.60;99.90
7572;DHT22;3827;49.928;8.548;2023-05-27T05:14:14;10.70;99.90
7572;DHT22;3827;49.928;8.548;2023-05-27T05:16:41;10.70;99.90
7572;DHT22;3827;49.928;8.548;2023-05-27T05:19:08;10.90;99.90
7572;DHT22;3827;49.928;8.548;2023-05-27T05:21:36;10.90;99.90
7572;DHT22;3827;49.928;8.548;2023-05-27T05:24:03;10.90;99.90
7572;DHT22;3827;49.928;8.548;2023-05-27T05:26:30;11.00;99.90
7572;DHT22;3827;49.928;8.548;2023-05-27T05:28:57;11.10;99.90
7572;DHT22;3827;49.928;8.548;2023-05-27T05:31:24;11.20;99.90
7572;DHT22;3827;49.928;8.548;2023-05-27T05:33:50;11.30;99.90
7572;DHT22;3827;49.928;8.548;2023-05-27T05:36:17;11.80;99.90
7572;DHT22;3827;49.928;8.548;2023-05-27T05:38:47;11.40;99.90
7572;DHT22;3827;49.928;8.548;2023-05-27T05:41:14;11.50;99.90
7572;DHT22;3827;49.928;8.548;2023-05-27T05:43:41;11.60;99.90
7572;DHT22;3827;49.928;8.548;2023-05-27T05:46:08;11.60;99.90
7572;DHT22;3827;49.928;8.548;2023-05-27T05:48:35;11.70;99.90
7572;DHT22;3827;49.928;8.548;2023-05-27T05:51:02;11.80;99.90
7572;DHT22;3827;49.928;8.548;2023-05-27T05:53:29;12.00;99.90
7572;DHT22;3827;49.928;8.548;2023-05-27T05:55:58;12.00;99.90
7572;DHT22;3827;49.928;8.548;2023-05-27T05:58:25;12.10;99.90
7572;DHT22;3827;49.928;8.548;2023-05-27T06:00:52;12.20;99.90
7572;DHT22;3827;49.928;8.548;2023-05-27T06:03:19;12.20;99.90
7572;DHT22;3827;49.928;8.548;2023-05-27T06:05:46;12.40;99.90
7572;DHT22;3827;49.928;8.548;2023-05-27T06:08:13;12.50;99.90
7572;DHT22;3827;49.928;8.548;2023-05-27T06:10:40;12.60;99.90
7572;DHT22;3827;49.928;8.548;2023-05-27T06:13:08;12.70;99.90
7572;DHT22;3827;49.928;8.548;2023-05-27T06:15:36;12.80;99.90
7572;DHT22;3827;49.928;8.548;2023-05-27T06:18:04;12.80;99.90
7572;DHT22;3827;49.928;8.548;2023-05-27T06:20:31;12.90;99.90
7572;DHT22;3827;49.928;8.548;2023-05-27T06:22:57;13.00;99.90
7572;DHT22;3827;49.928;8.548;2023-05-27T06:25:24;13.30;99.90
7572;DHT22;3827;49.928;8.548;2023-05-27T06:27:51;13.20;99.90
7572;DHT22;3827;49.928;8.548;2023-05-27T06:30:19;13.30;99.90
7572;DHT22;3827;49.928;8.548;2023-05-27T06:32:46;13.50;99.90
7572;DHT22;3827;49.928;8.548;2023-05-27T06:35:13;13.50;99.90
7572;DHT22;3827;49.928;8.548;2023-05-27T06:37:40;13.70;99.90
7572;DHT22;3827;49.928;8.548;2023-05-27T06:40:08;13.70;99.90
7572;DHT22;3827;49.928;8.548;2023-05-27T06:42:34;13.80;99.90
7572;DHT22;3827;49.928;8.548;2023-05-27T06:45:01;13.90;99.90
7572;DHT22;3827;49.928;8.548;2023-05-27T06:47:30;14.00;99.90
7572;DHT22;3827;49.928;8.548;2023-05-27T06:49:56;14.00;99.90
7572;DHT22;3827;49.928;8.548;2023-05-27T06:52:24;14.30;99.90
7572;DHT22;3827;49.928;8.548;2023-05-27T06:54:50;14.40;99.90
7572;DHT22;3827;49.928;8.548;2023-05-27T06:57:17;14.50;99.90
7572;DHT22;3827;49.928;8.548;2023-05-27T06:59:44;14.50;99.90
7572;DHT22;3827;49.928;8.548;2023-05-27T07:02:11;14.60;99.90
7572;DHT22;3827;49.928;8.548;2023-05-27T07:04:39;14.60;99.90
7572;DHT22;3827;49.928;8.548;2023-05-27T07:07:06;14.70;99.90
7572;DHT22;3827;49.928;8.548;2023-05-27T07:09:32;14.70;99.90
7572;DHT22;3827;49.928;8.548;2023-05-27T07:12:00;14.90;99.90
7572;DHT22;3827;49.928;8.548;2023-05-27T07:14:27;15.20;99.90
7572;DHT22;3827;49.928;8.548;2023-05-27T07:16:54;15.30;99.90
7572;DHT22;3827;49.928;8.548;2023-05-27T07:19:21;15.30;99.90
7572;DHT22;3827;49.928;8.548;2023-05-27T07:21:49;15.30;99.90
7572;DHT22;3827;49.928;8.548;2023-05-27T07:24:17;15.50;99.90
7572;DHT22;3827;49.928;8.548;2023-05-27T07:26:44;15.60;99.90
7572;DHT22;3827;49.928;8.548;2023-05-27T07:29:10;15.70;99.90
7572;DHT22;3827;49.928;8.548;2023-05-27T07:31:37;15.80;99.90
7572;DHT22;3827;49.928;8.548;2023-05-27T07:34:04;15.80;99.90
7572;DHT22;3827;49.928;8.548;2023-05-27T07:36:31;15.60;99.90
7572;DHT22;3827;49.928;8.548;2023-05-27T07:38:59;15.90;99.90
7572;DHT22;3827;49.928;8.548;2023-05-27T07:41:26;16.00;99.90
7572;DHT22;3827;49.928;8.548;2023-05-27T07:43:55;16.10;99.90
7572;DHT22;3827;49.928;8.548;2023-05-27T07:46:21;16.30;99.90
7572;DHT22;3827;49.928;8.548;2023-05-27T07:48:48;16.40;99.90
7572;DHT22;3827;49.928;8.548;2023-05-27T07:51:15;16.30;99.90
7572;DHT22;3827;49.928;8.548;2023-05-27T07:53:42;16.40;99.90
7572;DHT22;3827;49.928;8.548;2023-05-27T07:56:10;16.60;99.90
7572;DHT22;3827;49.928;8.548;2023-05-27T07:58:37;16.80;99.90
7572;DHT22;3827;49.928;8.548;2023-05-27T08:01:04;17.00;99.90
7572;DHT22;3827;49.928;8.548;2023-05-27T08:03:30;17.10;99.90
7572;DHT22;3827;49.928;8.548;2023-05-27T08:05:57;17.10;99.90
7572;DHT22;3827;49.928;8.548;2023-05-27T08:08:24;17.10;99.90
7572;DHT22;3827;49.928;8.548;2023-05-27T08:10:51;17.20;99.90
7572;DHT22;3827;49.928;8.548;2023-05-27T08:13:19;17.20;99.90
7572;DHT22;3827;49.928;8.548;2023-05-27T08:15:46;17.60;99.90
7572;DHT22;3827;49.928;8.548;2023-05-27T08:18:13;17.70;99.90
7572;DHT22;3827;49.928;8.548;2023-05-27T08:20:40;18.00;99.90
7572;DHT22;3827;49.928;8.548;2023-05-27T08:23:07;18.00;99.90
7572;DHT22;3827;49.928;8.548;2023-05-27T08:25:34;18.30;99.90
7572;DHT22;3827;49.928;8.548;2023-05-27T08:28:00;18.20;99.90
7572;DHT22;3827;49.928;8.548;2023-05-27T08:30:29;18.30;99.90
7572;DHT22;3827;49.928;8.548;2023-05-27T08:32:56;18.30;99.90
7572;DHT22;3827;49.928;8.548;2023-05-27T08:35:23;18.40;99.90
7572;DHT22;3827;49.928;8.548;2023-05-27T08:37:50;18.60;99.90
7572;DHT22;3827;49.928;8.548;2023-05-27T08:40:18;18.60;99.90
7572;DHT22;3827;49.928;8.548;2023-05-27T08:42:46;18.70;99.90
7572;DHT22;3827;49.928;8.548;2023-05-27T08:45:13;19.10;99.90
7572;DHT22;3827;49.928;8.548;2023-05-27T08:47:41;19.40;99.90
7572;DHT22;3827;49.928;8.548;2023-05-27T08:50:09;19.40;99.90
7572;DHT22;3827;49.928;8.548;2023-05-27T08:52:40;19.40;99.90
7572;DHT22;3827;49.928;8.548;2023-05-27T08:55:10;19.60;99.90
7572;DHT22;3827;49.928;8.548;2023-05-27T08:57:42;19.50;99.90
7572;DHT22;3827;49.928;8.548;2023-05-27T09:00:11;19.20;99.90
7572;DHT22;3827;49.928;8.548;2023-05-27T09:02:41;19.30;99.90
7572;DHT22;3827;49.928;8.548;2023-05-27T09:05:10;19.70;99.90
7572;DHT22;3827;49.928;8.548;2023-05-27T09:07:37;19.80;99.90
7572;DHT22;3827;49.928;8.548;2023-05-27T09:10:05;20.10;99.90
7572;DHT22;3827;49.928;8.548;2023-05-27T09:12:33;20.40;99.90
7572;DHT22;3827;49.928;8.548;2023-05-27T09:15:00;20.40;99.90
7572;DHT22;3827;49.928;8.548;2023-05-27T09:17:27;20.70;99.90
7572;DHT22;3827;49.928;8.548;2023-05-27T09:19:55;20.90;99.90
7572;DHT22;3827;49.928;8.548;2023-05-27T09:22:25;21.10;99.90
7572;DHT22;3827;49.928;8.548;2023-05-27T09:24:52;20.80;1.00
7572;DHT22;3827;49.928;8.548;2023-05-27T09:27:24;20.90;1.00
7572;DHT22;3827;49.928;8.548;2023-05-27T09:29:51;20.90;1.00
7572;DHT22;3827;49.928;8.548;2023-05-27T09:32:23;21.10;1.00
7572;DHT22;3827;49.928;8.548;2023-05-27T09:34:50;21.00;1.00
7572;DHT22;3827;49.928;8.548;2023-05-27T09:37:19;21.20;1.00
7572;DHT22;3827;49.928;8.548;2023-05-27T09:39:46;21.20;1.00
7572;DHT22;3827;49.928;8.548;2023-05-27T09:42:14;21.40;1.00
7572;DHT22;3827;49.928;8.548;2023-05-27T09:44:40;21.50;1.00
7572;DHT22;3827;49.928;8.548;2023-05-27T09:47:08;21.80;1.00
7572;DHT22;3827;49.928;8.548;2023-05-27T09:49:37;21.90;1.00
7572;DHT22;3827;49.928;8.548;2023-05-27T09:52:05;21.60;1.00
7572;DHT22;3827;49.928;8.548;2023-05-27T09:54:35;21.80;1.00
7572;DHT22;3827;49.928;8.548;2023-05-27T09:57:05;22.00;1.00
7572;DHT22;3827;49.928;8.548;2023-05-27T09:59:33;22.60;1.00
7572;DHT22;3827;49.928;8.548;2023-05-27T10:02:00;22.70;1.00
7572;DHT22;3827;49.928;8.548;2023-05-27T10:04:28;22.60;1.00
7572;DHT22;3827;49.928;8.548;2023-05-27T10:06:56;23.30;1.00
7572;DHT22;3827;49.928;8.548;2023-05-27T10:09:23;23.10;1.00
7572;DHT22;3827;49.928;8.548;2023-05-27T10:11:53;23.00;1.00
7572;DHT22;3827;49.928;8.548;2023-05-27T10:14:20;23.60;1.00
7572;DHT22;3827;49.928;8.548;2023-05-27T10:16:51;23.90;1.00
7572;DHT22;3827;49.928;8.548;2023-05-27T10:19:20;24.60;1.00
7572;DHT22;3827;49.928;8.548;2023-05-27T10:21:46;24.40;1.00
7572;DHT22;3827;49.928;8.548;2023-05-27T10:24:13;24.80;1.00
7572;DHT22;3827;49.928;8.548;2023-05-27T10:26:42;24.30;1.00
7572;DHT22;3827;49.928;8.548;2023-05-27T10:29:11;24.70;1.00
7572;DHT22;3827;49.928;8.548;2023-05-27T10:31:44;24.70;1.00
7572;DHT22;3827;49.928;8.548;2023-05-27T10:34:12;24.80;1.00
7572;DHT22;3827;49.928;8.548;2023-05-27T10:36:39;24.50;1.00
7572;DHT22;3827;49.928;8.548;2023-05-27T10:39:12;24.40;1.00
7572;DHT22;3827;49.928;8.548;2023-05-27T10:41:40;24.90;1.00
7572;DHT22;3827;49.928;8.548;2023-05-27T10:44:09;25.40;1.00
7572;DHT22;3827;49.928;8.548;2023-05-27T10:46:40;25.50;1.00
7572;DHT22;3827;49.928;8.548;2023-05-27T10:49:13;25.60;1.00
7572;DHT22;3827;49.928;8.548;2023-05-27T10:51:40;26.20;1.00
7572;DHT22;3827;49.928;8.548;2023-05-27T10:54:08;25.70;1.00
7572;DHT22;3827;49.928;8.548;2023-05-27T10:56:35;25.60;1.00
7572;DHT22;3827;49.928;8.548;2023-05-27T10:59:02;26.00;1.00
7572;DHT22;3827;49.928;8.548;2023-05-27T11:01:32;26.40;1.00
7572;DHT22;3827;49.928;8.548;2023-05-27T11:03:59;25.80;1.00
7572;DHT22;3827;49.928;8.548;2023-05-27T11:06:26;26.50;1.00
7572;DHT22;3827;49.928;8.548;2023-05-27T11:08:54;27.10;1.00
7572;DHT22;3827;49.928;8.548;2023-05-27T11:11:21;28.00;1.00
7572;DHT22;3827;49.928;8.548;2023-05-27T11:13:48;27.00;1.00
7572;DHT22;3827;49.928;8.548;2023-05-27T11:16:15;27.00;1.00
7572;DHT22;3827;49.928;8.548;2023-05-27T11:18:44;27.20;1.00
7572;DHT22;3827;49.928;8.548;2023-05-27T11:21:13;26.50;1.00
7572;DHT22;3827;49.928;8.548;2023-05-27T11:23:43;27.10;1.00
7572;DHT22;3827;49.928;8.548;2023-05-27T11:26:12;26.90;1.00
7572;DHT22;3827;49.928;8.548;2023-05-27T11:28:45;26.40;1.00
7572;DHT22;3827;49.928;8.548;2023-05-27T11:31:13;25.90;1.00
7572;DHT22;3827;49.928;8.548;2023-05-27T11:33:41;26.80;1.00
7572;DHT22;3827;49.928;8.548;2023-05-27T11:36:11;26.90;1.00
7572;DHT22;3827;49.928;8.548;2023-05-27T11:38:52;26.30;1.00
7572;DHT22;3827;49.928;8.548;2023-05-27T11:41:21;26.50;1.00
7572;DHT22;3827;49.928;8.548;2023-05-27T11:43:54;26.50;1.00
7572;DHT22;3827;49.928;8.548;2023-05-27T11:46:21;26.80;1.00
7572;DHT22;3827;49.928;8.548;2023-05-27T11:48:48;27.00;1.00
7572;DHT22;3827;49.928;8.548;2023-05-27T11:51:16;26.90;1.00
7572;DHT22;3827;49.928;8.548;2023-05-27T11:53:47;27.20;1.00
7572;DHT22;3827;49.928;8.548;2023-05-27T11:56:13;27.50;1.00
7572;DHT22;3827;49.928;8.548;2023-05-27T11:58:41;27.60;1.00
7572;DHT22;3827;49.928;8.548;2023-05-27T12:01:08;27.00;1.00
7572;DHT22;3827;49.928;8.548;2023-05-27T12:03:34;26.80;1.00
7572;DHT22;3827;49.928;8.548;2023-05-27T12:06:02;27.30;1.00
7572;DHT22;3827;49.928;8.548;2023-05-27T12:08:30;27.30;1.00
7572;DHT22;3827;49.928;8.548;2023-05-27T12:10:57;26.70;1.00
7572;DHT22;3827;49.928;8.548;2023-05-27T12:13:24;26.50;1.00
7572;DHT22;3827;49.928;8.548;2023-05-27T12:15:51;27.30;1.00
7572;DHT22;3827;49.928;8.548;2023-05-27T12:18:18;27.90;1.00
7572;DHT22;3827;49.928;8.548;2023-05-27T12:20:45;28.40;1.00
7572;DHT22;3827;49.928;8.548;2023-05-27T12:23:12;28.30;1.00
7572;DHT22;3827;49.928;8.548;2023-05-27T12:25:40;28.20;1.00
7572;DHT22;3827;49.928;8.548;2023-05-27T12:28:07;28.40;1.00
7572;DHT22;3827;49.928;8.548;2023-05-27T12:30:34;27.90;1.00
7572;DHT22;3827;49.928;8.548;2023-05-27T12:33:02;27.40;1.00
7572;DHT22;3827;49.928;8.548;2023-05-27T12:35:29;26.80;1.00
7572;DHT22;3827;49.928;8.548;2023-05-27T12:37:56;27.50;1.00
7572;DHT22;3827;49.928;8.548;2023-05-27T12:40:24;28.10;1.00
7572;DHT22;3827;49.928;8.548;2023-05-27T12:42:52;28.80;1.00
7572;DHT22;3827;49.928;8.548;2023-05-27T12:45:19;28.80;1.00
7572;DHT22;3827;49.928;8.548;2023-05-27T12:47:47;28.70;1.00
7572;DHT22;3827;49.928;8.548;2023-05-27T12:50:14;29.00;1.00
7572;DHT22;3827;49.928;8.548;2023-05-27T12:52:41;29.10;1.00
7572;DHT22;3827;49.928;8.548;2023-05-27T12:55:12;29.10;1.00
7572;DHT22;3827;49.928;8.548;2023-05-27T12:57:39;29.20;1.00
7572;DHT22;3827;49.928;8.548;2023-05-27T13:00:08;28.80;1.00
7572;DHT22;3827;49.928;8.548;2023-05-27T13:02:36;28.50;1.00
7572;DHT22;3827;49.928;8.548;2023-05-27T13:05:04;28.90;1.00
7572;DHT22;3827;49.928;8.548;2023-05-27T13:07:31;29.10;1.00
7572;DHT22;3827;49.928;8.548;2023-05-27T13:10:00;29.40;1.00
7572;DHT22;3827;49.928;8.548;2023-05-27T13:12:28;29.70;1.00
7572;DHT22;3827;49.928;8.548;2023-05-27T13:14:55;29.80;1.00
7572;DHT22;3827;49.928;8.548;2023-05-27T13:17:23;30.70;1.00
7572;DHT22;3827;49.928;8.548;2023-05-27T13:19:50;30.90;1.00
7572;DHT22;3827;49.928;8.548;2023-05-27T13:22:17;31.00;1.00
7572;DHT22;3827;49.928;8.548;2023-05-27T13:24:44;31.30;1.00
7572;DHT22;3827;49.928;8.548;2023-05-27T13:27:11;31.50;1.00
7572;DHT22;3827;49.928;8.548;2023-05-27T13:29:39;31.30;1.00
7572;DHT22;3827;49.928;8.548;2023-05-27T13:32:06;31.00;1.00
7572;DHT22;3827;49.928;8.548;2023-05-27T13:34:35;31.20;1.00
7572;DHT22;3827;49.928;8.548;2023-05-27T13:37:02;31.10;1.00
7572;DHT22;3827;49.928;8.548;2023-05-27T13:39:29;31.10;1.00
7572;DHT22;3827;49.928;8.548;2023-05-27T13:41:56;30.40;1.00
7572;DHT22;3827;49.928;8.548;2023-05-27T13:44:24;29.30;1.00
7572;DHT22;3827;49.928;8.548;2023-05-27T13:46:51;29.90;1.00
7572;DHT22;3827;49.928;8.548;2023-05-27T13:49:18;30.50;1.00
7572;DHT22;3827;49.928;8.548;2023-05-27T13:51:47;30.70;1.00
7572;DHT22;3827;49.928;8.548;2023-05-27T13:54:13;31.30;1.00
7572;DHT22;3827;49.928;8.548;2023-05-27T13:56:40;30.90;1.00
7572;DHT22;3827;49.928;8.548;2023-05-27T13:59:07;30.50;1.00
7572;DHT22;3827;49.928;8.548;2023-05-27T14:01:35;30.90;1.00
7572;DHT22;3827;49.928;8.548;2023-05-27T14:04:02;30.90;1.00
7572;DHT22;3827;49.928;8.548;2023-05-27T14:06:29;31.10;1.00
7572;DHT22;3827;49.928;8.548;2023-05-27T14:08:57;31.30;1.00
7572;DHT22;3827;49.928;8.548;2023-05-27T14:11:25;30.40;1.00
7572;DHT22;3827;49.928;8.548;2023-05-27T14:13:53;30.80;1.00
7572;DHT22;3827;49.928;8.548;2023-05-27T14:16:20;31.10;1.00
7572;DHT22;3827;49.928;8.548;2023-05-27T14:18:48;30.70;1.00
7572;DHT22;3827;49.928;8.548;2023-05-27T14:21:15;31.10;1.00
7572;DHT22;3827;49.928;8.548;2023-05-27T14:23:42;31.60;1.00
7572;DHT22;3827;49.928;8.548;2023-05-27T14:26:10;31.70;1.00
7572;DHT22;3827;49.928;8.548;2023-05-27T14:28:37;31.70;1.00
7572;DHT22;3827;49.928;8.548;2023-05-27T14:31:04;31.80;1.00
7572;DHT22;3827;49.928;8.548;2023-05-27T14:33:30;32.10;1.00
7572;DHT22;3827;49.928;8.548;2023-05-27T14:35:57;31.40;1.00
7572;DHT22;3827;49.928;8.548;2023-05-27T14:38:24;30.90;1.00
7572;DHT22;3827;49.928;8.548;2023-05-27T14:40:51;30.50;1.00
7572;DHT22;3827;49.928;8.548;2023-05-27T14:43:19;30.50;1.00
7572;DHT22;3827;49.928;8.548;2023-05-27T14:45:46;30.90;1.00
7572;DHT22;3827;49.928;8.548;2023-05-27T14:48:13;30.90;1.00
7572;DHT22;3827;49.928;8.548;2023-05-27T14:50:40;31.00;1.00
7572;DHT22;3827;49.928;8.548;2023-05-27T14:53:07;30.80;1.00
7572;DHT22;3827;49.928;8.548;2023-05-27T14:55:33;30.60;1.00
7572;DHT22;3827;49.928;8.548;2023-05-27T14:58:01;31.00;1.00
7572;DHT22;3827;49.928;8.548;2023-05-27T15:00:31;31.60;1.00
7572;DHT22;3827;49.928;8.548;2023-05-27T15:02:58;31.80;1.00
7572;DHT22;3827;49.928;8.548;2023-05-27T15:05:24;30.60;1.00
7572;DHT22;3827;49.928;8.548;2023-05-27T15:07:51;29.40;1.00
7572;DHT22;3827;49.928;8.548;2023-05-27T15:10:18;29.10;1.00
7572;DHT22;3827;49.928;8.548;2023-05-27T15:12:46;29.40;1.00
7572;DHT22;3827;49.928;8.548;2023-05-27T15:15:14;29.10;1.00
7572;DHT22;3827;49.928;8.548;2023-05-27T15:17:44;28.80;1.00
7572;DHT22;3827;49.928;8.548;2023-05-27T15:20:11;29.10;1.00
7572;DHT22;3827;49.928;8.548;2023-05-27T15:22:38;29.00;1.00
7572;DHT22;3827;49.928;8.548;2023-05-27T15:25:06;28.80;1.00
7572;DHT22;3827;49.928;8.548;2023-05-27T15:27:33;28.90;1.00
7572;DHT22;3827;49.928;8.548;2023-05-27T15:30:02;28.90;1.00
7572;DHT22;3827;49.928;8.548;2023-05-27T15:32:29;28.60;1.00
7572;DHT22;3827;49.928;8.548;2023-05-27T15:34:58;28.50;1.00
7572;DHT22;3827;49.928;8.548;2023-05-27T15:37:27;29.00;1.00
7572;DHT22;3827;49.928;8.548;2023-05-27T15:39:53;29.10;1.00
7572;DHT22;3827;49.928;8.548;2023-05-27T15:42:20;29.10;1.00
7572;DHT22;3827;49.928;8.548;2023-05-27T15:44:48;28.70;1.00
7572;DHT22;3827;49.928;8.548;2023-05-27T15:47:15;28.30;1.00
7572;DHT22;3827;49.928;8.548;2023-05-27T15:49:42;28.00;1.00
7572;DHT22;3827;49.928;8.548;2023-05-27T15:52:10;27.60;1.00
7572;DHT22;3827;49.928;8.548;2023-05-27T15:54:38;27.70;1.00
7572;DHT22;3827;49.928;8.548;2023-05-27T15:57:06;28.00;1.00
7572;DHT22;3827;49.928;8.548;2023-05-27T15:59:33;27.90;1.00
7572;DHT22;3827;49.928;8.548;2023-05-27T16:02:00;28.00;1.00
7572;DHT22;3827;49.928;8.548;2023-05-27T16:04:27;28.20;1.00
7572;DHT22;3827;49.928;8.548;2023-05-27T16:06:54;28.10;1.00
7572;DHT22;3827;49.928;8.548;2023-05-27T16:09:23;27.80;1.00
7572;DHT22;3827;49.928;8.548;2023-05-27T16:11:50;27.60;1.00